createdAt,value
2019-01-05T00:00:12.839Z,17.97
2019-01-05T00:02:47.615Z,30.33
2019-01-05T00:05:22.409Z,30.93
2019-01-05T00:08:10.411Z,23.10
2019-01-05T00:10:42.470Z,21.43
2019-01-05T00:13:23.379Z,22.70
2019-01-05T00:15:55.406Z,23.27
2019-01-05T00:18:39.379Z,25.13
2019-01-05T00:21:19.635Z,18.33
2019-01-05T00:24:06.360Z,32.93
2019-01-05T00:26:44.191Z,28.93
2019-01-05T00:29:22.216Z,21.57
2019-01-05T00:32:37.204Z,24.83
2019-01-05T00:35:17.498Z,21.73
2019-01-05T00:37:49.515Z,23.57
2019-01-05T00:40:21.621Z,23.73
2019-01-05T00:42:56.313Z,27.87
2019-01-05T00:45:31.038Z,19.57
2019-01-05T00:48:18.059Z,23.70
2019-01-05T00:50:52.752Z,22.97
2019-01-05T00:53:33.958Z,31.20
2019-01-05T00:56:22.354Z,25.87
2019-01-05T00:58:57.064Z,28.00
2019-01-05T01:01:31.789Z,19.97
2019-01-05T01:04:03.874Z,21.80
2019-01-05T01:06:45.100Z,26.93
2019-01-05T01:09:17.288Z,32.70
2019-01-05T01:11:52.025Z,23.90
2019-01-05T01:14:33.203Z,29.07
2019-01-05T01:17:14.175Z,25.83
2019-01-05T01:20:02.504Z,27.57
2019-01-05T01:22:34.547Z,21.10
2019-01-05T01:25:09.661Z,25.00
2019-01-05T01:27:41.987Z,30.90
2019-01-05T01:30:22.869Z,30.70
2019-01-05T01:33:06.916Z,32.53
2019-01-05T01:35:38.951Z,28.90
2019-01-05T01:38:30.524Z,25.97
2019-01-05T01:41:22.569Z,26.33
2019-01-05T01:43:54.596Z,28.53
2019-01-05T01:46:38.799Z,29.47
2019-01-05T01:49:13.230Z,31.97
2019-01-05T01:51:45.241Z,28.57
2019-01-05T01:54:17.284Z,29.17
2019-01-05T01:56:50.915Z,44.80
2019-01-05T01:59:28.383Z,31.03
2019-01-05T02:02:18.029Z,31.27
2019-01-05T02:04:55.491Z,36.10
2019-01-05T02:07:30.812Z,30.93
2019-01-05T02:10:18.959Z,48.30
2019-01-05T02:12:58.516Z,32.07
2019-01-05T02:15:42.956Z,36.20
2019-01-05T02:18:32.897Z,30.73
2019-01-05T02:21:32.293Z,41.80
2019-01-05T02:24:23.142Z,46.07
2019-01-05T02:27:25.406Z,38.00
2019-01-05T02:30:27.784Z,37.93
2019-01-05T02:33:41.395Z,45.00
2019-01-05T02:36:52.253Z,50.30
2019-01-05T02:39:59.004Z,44.03
2019-01-05T02:43:11.864Z,36.70
2019-01-05T02:46:13.961Z,37.97
2019-01-05T02:49:40.861Z,40.90
2019-01-05T02:53:01.205Z,34.10
2019-01-05T02:55:49.910Z,32.57
2019-01-05T02:59:18.601Z,44.27
2019-01-05T03:02:23.644Z,33.07
2019-01-05T03:05:15.810Z,42.80
2019-01-05T03:08:28.348Z,36.80
2019-01-05T03:11:25.628Z,33.63
2019-01-05T03:15:09.243Z,44.60
2019-01-05T03:18:15.718Z,30.10
2019-01-05T03:21:04.307Z,30.53
2019-01-05T03:24:02.315Z,39.47
2019-01-05T03:27:26.937Z,36.20
2019-01-05T03:30:18.509Z,41.53
2019-01-05T03:33:03.962Z,41.43
2019-01-05T03:36:05.655Z,44.50
2019-01-05T03:38:54.402Z,41.43
2019-01-05T03:42:03.389Z,33.30
2019-01-05T03:45:14.682Z,29.40
2019-01-05T03:48:25.667Z,41.03
2019-01-05T03:51:52.228Z,32.80
2019-01-05T03:55:30.964Z,44.37
2019-01-05T03:58:49.581Z,30.67
2019-01-05T04:02:20.796Z,27.53
2019-01-05T04:05:55.750Z,36.13
2019-01-05T04:09:24.138Z,35.93
2019-01-05T04:12:27.861Z,35.07
2019-01-05T04:16:02.139Z,36.27
2019-01-05T04:19:22.567Z,42.00
2019-01-05T04:22:20.608Z,31.80
2019-01-05T04:25:36.125Z,30.87
2019-01-05T04:28:42.882Z,30.07
2019-01-05T04:31:43.147Z,26.10
2019-01-05T04:34:48.727Z,33.13
2019-01-05T04:37:40.097Z,30.87
2019-01-05T04:41:06.710Z,34.53
2019-01-05T04:44:05.867Z,34.03
2019-01-05T04:47:07.123Z,29.23
2019-01-05T04:50:04.494Z,33.73
2019-01-05T04:53:23.470Z,38.93
2019-01-05T04:56:35.213Z,43.73
2019-01-05T04:59:43.553Z,38.97
2019-01-05T05:02:53.727Z,45.33
2019-01-05T05:06:15.525Z,39.90
2019-01-05T05:09:41.920Z,38.60
2019-01-05T05:13:08.390Z,28.00
2019-01-05T05:16:05.963Z,32.33
2019-01-05T05:19:17.091Z,40.33
2019-01-05T05:22:08.491Z,38.63
2019-01-05T05:25:06.378Z,36.07
2019-01-05T05:28:17.725Z,30.27
2019-01-05T05:31:22.603Z,30.07
2019-01-05T05:34:50.994Z,30.33
2019-01-05T05:38:08.593Z,34.07
2019-01-05T05:41:32.794Z,34.53
2019-01-05T05:44:21.318Z,45.30
2019-01-05T05:47:10.682Z,38.10
2019-01-05T05:50:16.239Z,28.53
2019-01-05T05:53:33.401Z,31.63
2019-01-05T05:56:56.318Z,38.33
2019-01-05T06:00:16.914Z,29.13
2019-01-05T06:03:13.559Z,35.83
2019-01-05T06:06:40.613Z,29.73
2019-01-05T06:09:51.608Z,27.67
2019-01-05T06:13:00.341Z,27.63
2019-01-05T06:15:58.747Z,26.23
2019-01-05T06:19:20.758Z,37.27
2019-01-05T06:22:20.471Z,32.10
2019-01-05T06:25:27.379Z,30.93
2019-01-05T06:28:32.744Z,30.70
2019-01-05T06:31:57.434Z,31.43
2019-01-05T06:35:20.954Z,29.33
2019-01-05T06:38:12.500Z,34.80
2019-01-05T06:41:40.344Z,36.17
2019-01-05T06:45:02.228Z,32.93
2019-01-05T06:48:13.972Z,29.97
2019-01-05T06:51:45.148Z,38.93
2019-01-05T06:54:51.715Z,32.10
2019-01-05T06:58:05.816Z,30.47
2019-01-05T07:01:35.419Z,36.90
2019-01-05T07:04:55.830Z,37.67
2019-01-05T07:08:24.497Z,26.83
2019-01-05T07:11:35.806Z,31.10
2019-01-05T07:14:51.387Z,29.13
2019-01-05T07:18:02.813Z,33.10
2019-01-05T07:21:06.858Z,33.13
2019-01-05T07:24:33.822Z,38.70
2019-01-05T07:28:12.105Z,33.07
2019-01-05T07:31:24.843Z,28.40
2019-01-05T07:34:28.356Z,30.87
2019-01-05T07:37:45.377Z,34.73
2019-01-05T07:41:16.849Z,34.40
2019-01-05T07:44:36.069Z,33.90
2019-01-05T07:47:52.326Z,29.80
2019-01-05T07:51:05.199Z,34.60
2019-01-05T07:54:19.775Z,36.67
2019-01-05T07:57:41.742Z,35.90
2019-01-05T08:00:38.127Z,35.67
2019-01-05T08:03:35.828Z,25.57
2019-01-05T08:06:59.963Z,31.53
2019-01-05T08:09:48.796Z,26.50
2019-01-05T08:13:04.548Z,45.30
2019-01-05T08:16:11.431Z,27.20
2019-01-05T08:19:02.935Z,32.13
2019-01-05T08:21:57.322Z,38.27
2019-01-05T08:24:54.836Z,30.23
2019-01-05T08:27:57.075Z,27.43
2019-01-05T08:31:09.942Z,29.10
2019-01-05T08:34:13.307Z,26.10
2019-01-05T08:37:16.285Z,32.40
2019-01-05T08:40:35.490Z,32.87
2019-01-05T08:43:50.225Z,28.37
2019-01-05T08:47:07.954Z,36.53
2019-01-05T08:50:12.712Z,28.30
2019-01-05T08:53:04.690Z,19.13
2019-01-05T08:56:24.874Z,30.47
2019-01-05T08:59:25.428Z,26.77
2019-01-05T09:02:36.602Z,28.00
2019-01-05T09:05:32.553Z,23.17
2019-01-05T09:09:02.435Z,33.73
2019-01-05T09:12:27.908Z,31.07
2019-01-05T09:15:39.262Z,28.87
2019-01-05T09:19:23.494Z,26.63
2019-01-05T09:22:35.097Z,30.20
2019-01-05T09:25:54.200Z,23.43
2019-01-05T09:28:58.072Z,30.33
2019-01-05T09:32:18.776Z,27.27
2019-01-05T09:35:23.513Z,32.60
2019-01-05T09:38:30.172Z,20.30
2019-01-05T09:41:53.873Z,25.27
2019-01-05T09:45:09.901Z,27.93
2019-01-05T09:48:22.280Z,26.13
2019-01-05T09:51:51.165Z,25.90
2019-01-05T09:55:26.891Z,27.07
2019-01-05T09:58:35.464Z,30.20
2019-01-05T10:01:40.586Z,30.40
2019-01-05T10:04:53.480Z,27.83
2019-01-05T10:08:27.260Z,28.73
2019-01-05T10:11:26.577Z,19.07
2019-01-05T10:14:54.664Z,22.47
2019-01-05T10:17:43.456Z,17.83
2019-01-05T10:20:29.009Z,23.27
2019-01-05T10:23:37.254Z,22.27
2019-01-05T10:26:45.186Z,23.43
2019-01-05T10:30:00.944Z,24.03
2019-01-05T10:32:58.665Z,21.33
2019-01-05T10:36:07.756Z,24.07
2019-01-05T10:39:12.946Z,23.63
2019-01-05T10:42:35.448Z,26.37
2019-01-05T10:45:40.039Z,21.90
2019-01-05T10:48:51.661Z,21.90
2019-01-05T10:51:48.970Z,23.00
2019-01-05T10:54:52.302Z,23.67
2019-01-05T10:57:46.942Z,30.67
2019-01-05T11:00:58.616Z,25.97
2019-01-05T11:04:06.418Z,20.63
2019-01-05T11:07:22.980Z,21.50
2019-01-05T11:10:51.333Z,27.70
2019-01-05T11:14:03.480Z,22.80
2019-01-05T11:17:01.078Z,23.00
2019-01-05T11:20:39.466Z,17.77
2019-01-05T11:24:06.265Z,24.73
2019-01-05T11:27:17.679Z,23.83
2019-01-05T11:30:12.120Z,22.80
2019-01-05T11:33:44.343Z,24.10
2019-01-05T11:36:58.862Z,22.63
2019-01-05T11:40:01.618Z,23.37
2019-01-05T11:43:11.866Z,22.20
2019-01-05T11:46:03.779Z,23.63
2019-01-05T11:49:20.761Z,24.30
2019-01-05T11:52:34.928Z,24.77
2019-01-05T11:55:32.243Z,24.07
2019-01-05T11:58:37.151Z,23.80
2019-01-05T12:01:26.013Z,17.80
2019-01-05T12:04:17.793Z,14.90
2019-01-05T12:07:17.198Z,23.03
2019-01-05T12:10:14.814Z,21.93
2019-01-05T12:13:24.662Z,21.23
2019-01-05T12:16:44.038Z,19.83
2019-01-05T12:20:03.312Z,19.27
2019-01-05T12:23:00.594Z,14.63
2019-01-05T12:26:18.401Z,27.50
2019-01-05T12:29:07.176Z,20.23
2019-01-05T12:32:35.513Z,16.57
2019-01-05T12:36:05.125Z,18.53
2019-01-05T12:39:16.630Z,13.07
2019-01-05T12:42:26.960Z,16.10
2019-01-05T12:45:47.320Z,16.67
2019-01-05T12:49:02.962Z,22.93
2019-01-05T12:52:05.004Z,17.17
2019-01-05T12:55:23.117Z,15.77
2019-01-05T12:58:36.130Z,21.60
2019-01-05T13:01:50.721Z,15.70
2019-01-05T13:04:47.022Z,20.37
2019-01-05T13:08:10.237Z,18.63
2019-01-05T13:11:45.054Z,13.00
2019-01-05T13:14:38.418Z,16.87
2019-01-05T13:17:38.980Z,12.73
2019-01-05T13:20:52.460Z,15.50
2019-01-05T13:24:17.111Z,14.17
2019-01-05T13:27:41.953Z,15.73
2019-01-05T13:30:45.604Z,12.60
2019-01-05T13:34:04.195Z,12.83
2019-01-05T13:37:13.295Z,12.37
2019-01-05T13:40:30.505Z,12.20
2019-01-05T13:44:05.933Z,16.20
2019-01-05T13:47:20.852Z,15.43
2019-01-05T13:50:39.622Z,10.90
2019-01-05T13:53:28.646Z,9.00
2019-01-05T13:56:21.525Z,12.90
2019-01-05T13:59:02.377Z,9.93
2019-01-05T14:01:37.335Z,5.97
2019-01-05T14:04:09.357Z,9.37
2019-01-05T14:06:59.443Z,8.97
2019-01-05T14:09:31.502Z,3.53
2019-01-05T14:12:12.604Z,3.83
2019-01-05T14:14:47.312Z,5.20
2019-01-05T14:17:28.360Z,5.07
2019-01-05T14:20:16.752Z,2.73
2019-01-05T14:22:51.702Z,3.13
2019-01-05T14:25:40.036Z,3.33
2019-01-05T14:28:18.343Z,2.53
2019-01-05T14:30:50.714Z,1.90
2019-01-05T14:33:41.206Z,3.07
2019-01-05T14:36:13.595Z,2.07
2019-01-05T14:38:51.572Z,2.70
2019-01-05T14:41:23.862Z,3.30
2019-01-05T14:44:08.075Z,2.43
2019-01-05T14:46:40.482Z,3.23
2019-01-05T14:49:18.673Z,3.27
2019-01-05T14:51:50.674Z,2.90
2019-01-05T14:54:28.916Z,3.03
2019-01-05T14:57:00.925Z,4.33
2019-01-05T14:59:50.931Z,7.37
2019-01-05T15:02:39.050Z,4.47
2019-01-05T15:05:29.114Z,3.03
2019-01-05T15:08:17.394Z,3.10
2019-01-05T15:11:05.579Z,4.70
2019-01-05T15:13:53.940Z,9.63
2019-01-05T15:16:42.325Z,10.33
2019-01-05T15:19:20.386Z,4.50
2019-01-05T15:21:58.410Z,5.37
2019-01-05T15:24:47.133Z,3.53
2019-01-05T15:27:34.451Z,5.53
2019-01-05T15:30:23.707Z,3.13
2019-01-05T15:32:55.785Z,5.97
2019-01-05T15:35:43.104Z,6.60
2019-01-05T15:38:15.129Z,8.58
2019-01-05T15:41:03.185Z,6.67
2019-01-05T15:43:50.433Z,6.00
2019-01-05T15:46:42.440Z,7.70
2019-01-05T15:49:28.600Z,4.20
2019-01-05T15:52:06.543Z,5.60
2019-01-05T15:54:54.443Z,3.37
2019-01-05T15:57:42.813Z,7.33
2019-01-05T16:00:30.936Z,6.13
2019-01-05T16:03:03.264Z,8.67
2019-01-05T16:05:53.769Z,6.17
2019-01-05T16:08:38.112Z,6.07
2019-01-05T16:11:15.812Z,4.80
2019-01-05T16:14:04.567Z,6.57
2019-01-05T16:16:53.016Z,7.30
2019-01-05T16:19:25.024Z,5.40
2019-01-05T16:22:00.192Z,3.53
2019-01-05T16:24:35.200Z,5.10
2019-01-05T16:27:13.007Z,8.50
2019-01-05T16:29:47.840Z,4.60
2019-01-05T16:32:20.264Z,5.00
2019-01-05T16:34:52.330Z,4.97
2019-01-05T16:37:27.283Z,8.67
2019-01-05T16:40:02.352Z,3.83
2019-01-05T16:42:46.401Z,5.93
2019-01-05T16:45:21.335Z,6.23
2019-01-05T16:47:56.031Z,4.57
2019-01-05T16:50:34.419Z,9.40
2019-01-05T16:53:22.734Z,8.60
2019-01-05T16:55:54.761Z,9.43
2019-01-05T16:58:26.772Z,8.47
2019-01-05T17:01:10.717Z,6.20
2019-01-05T17:03:42.777Z,12.37
2019-01-05T17:06:33.152Z,7.80
2019-01-05T17:09:24.493Z,7.57
2019-01-05T17:12:05.359Z,5.27
2019-01-05T17:14:43.393Z,4.77
2019-01-05T17:17:21.167Z,8.20
2019-01-05T17:19:59.194Z,5.87
2019-01-05T17:22:34.333Z,8.97
2019-01-05T17:25:19.068Z,4.47
2019-01-05T17:28:07.440Z,4.70
2019-01-05T17:30:39.531Z,10.63
2019-01-05T17:33:28.182Z,4.00
2019-01-05T17:36:00.244Z,8.00
2019-01-05T17:38:32.255Z,15.03
2019-01-05T17:41:06.695Z,8.87
2019-01-05T17:43:50.947Z,9.57
2019-01-05T17:46:31.854Z,8.37
2019-01-05T17:49:20.215Z,7.83
2019-01-05T17:51:58.436Z,6.73
2019-01-05T17:54:36.438Z,9.60
2019-01-05T17:57:20.619Z,9.40
2019-01-05T17:59:58.911Z,12.97
2019-01-05T18:02:39.984Z,12.70
2019-01-05T18:05:14.814Z,11.87
2019-01-05T18:07:49.761Z,8.77
2019-01-05T18:10:38.317Z,10.07
2019-01-05T18:13:22.494Z,9.50
2019-01-05T18:15:54.550Z,10.93
2019-01-05T18:18:26.745Z,10.50
2019-01-05T18:21:04.915Z,8.80
2019-01-05T18:23:53.362Z,10.43
2019-01-05T18:26:37.404Z,9.03
2019-01-05T18:29:25.808Z,13.10
2019-01-05T18:32:13.920Z,11.73
2019-01-05T18:34:48.990Z,7.00
2019-01-05T18:37:27.520Z,7.73
2019-01-05T18:39:59.545Z,9.40
2019-01-05T18:42:40.905Z,13.10
2019-01-05T18:45:15.710Z,6.50
2019-01-05T18:48:05.884Z,9.60
2019-01-05T18:50:54.050Z,6.67
2019-01-05T18:53:42.410Z,13.77
2019-01-05T18:56:32.767Z,10.17
2019-01-05T18:59:07.785Z,10.37
2019-01-05T19:01:45.519Z,10.00
2019-01-05T19:04:20.232Z,8.27
2019-01-05T19:07:00.968Z,7.27
2019-01-05T19:09:33.056Z,11.77
2019-01-05T19:12:13.820Z,10.37
2019-01-05T19:14:48.561Z,12.97
2019-01-05T19:17:35.584Z,13.30
2019-01-05T19:20:25.951Z,10.37
2019-01-05T19:23:10.171Z,10.47
2019-01-05T19:25:54.192Z,9.37
2019-01-05T19:28:26.551Z,7.87
2019-01-05T19:31:01.582Z,6.47
2019-01-05T19:33:33.975Z,8.07
2019-01-05T19:36:18.224Z,8.30
2019-01-05T19:39:06.532Z,7.17
2019-01-05T19:41:54.935Z,6.17
2019-01-05T19:44:32.680Z,5.73
2019-01-05T19:47:04.714Z,7.17
2019-01-05T19:49:54.754Z,5.83
2019-01-05T19:52:33.075Z,7.57
2019-01-05T19:55:07.766Z,6.40
2019-01-05T19:57:55.868Z,9.27
2019-01-05T20:00:44.750Z,10.33
2019-01-05T20:03:43.700Z,10.83
2019-01-05T20:06:30.914Z,10.43
2019-01-05T20:09:08.630Z,7.37
2019-01-05T20:11:46.535Z,10.13
2019-01-05T20:14:34.932Z,8.87
2019-01-05T20:17:10.128Z,9.20
2019-01-05T20:19:59.686Z,11.87
2019-01-05T20:22:34.751Z,10.63
2019-01-05T20:25:10.479Z,9.73
2019-01-05T20:27:42.486Z,8.87
2019-01-05T20:30:30.580Z,8.77
2019-01-05T20:33:14.947Z,9.70
2019-01-05T20:35:49.985Z,9.27
2019-01-05T20:38:24.923Z,8.43
2019-01-05T20:41:13.062Z,7.30
2019-01-05T20:43:45.424Z,8.23
2019-01-05T20:46:17.460Z,8.83
2019-01-05T20:48:52.429Z,10.53
2019-01-05T20:51:36.390Z,11.53
2019-01-05T20:54:09.992Z,9.87
2019-01-05T20:56:58.674Z,9.90
2019-01-05T20:59:40.628Z,11.17
2019-01-05T21:02:29.194Z,9.53
2019-01-05T21:05:01.403Z,10.60
2019-01-05T21:07:39.567Z,9.33
2019-01-05T21:10:21.177Z,9.37
2019-01-05T21:13:09.618Z,13.00
2019-01-05T21:15:53.556Z,9.90
2019-01-05T21:18:41.977Z,11.53
2019-01-05T21:21:14.011Z,11.97
2019-01-05T21:23:52.194Z,9.50
2019-01-05T21:26:27.244Z,9.80
2019-01-05T21:29:17.208Z,10.37
2019-01-05T21:31:52.154Z,12.13
2019-01-05T21:34:24.172Z,9.87
2019-01-05T21:37:05.282Z,10.87
2019-01-05T21:39:37.368Z,9.07
2019-01-05T21:42:18.359Z,10.17
2019-01-05T21:44:53.451Z,11.03
2019-01-05T21:47:41.763Z,11.43
2019-01-05T21:50:19.509Z,12.40
2019-01-05T21:52:57.592Z,12.43
2019-01-05T21:55:29.977Z,9.57
2019-01-05T21:58:18.346Z,8.87
2019-01-05T22:00:53.689Z,10.30
2019-01-05T22:03:25.705Z,10.07
2019-01-05T22:06:14.265Z,9.13
2019-01-05T22:08:58.187Z,13.23
2019-01-05T22:11:30.191Z,9.53
2019-01-05T22:14:18.482Z,11.27
2019-01-05T22:16:56.736Z,12.00
2019-01-05T22:19:45.170Z,12.67
2019-01-05T22:22:17.204Z,11.47
2019-01-05T22:25:06.062Z,11.90
2019-01-05T22:27:54.192Z,11.87
2019-01-05T22:30:26.211Z,13.37
2019-01-05T22:32:58.256Z,14.03
2019-01-05T22:35:36.240Z,12.50
2019-01-05T22:38:09.545Z,11.83
2019-01-05T22:40:57.676Z,10.93
2019-01-05T22:43:46.259Z,12.93
2019-01-05T22:46:18.278Z,12.50
2019-01-05T22:49:02.545Z,11.83
2019-01-05T22:51:52.848Z,13.50
2019-01-05T22:54:30.990Z,14.43
2019-01-05T22:57:11.747Z,14.20
2019-01-05T22:59:43.783Z,12.13
2019-01-05T23:02:31.897Z,14.53
2019-01-05T23:05:22.112Z,14.67
2019-01-05T23:07:57.157Z,15.10
2019-01-05T23:10:35.129Z,13.10
2019-01-05T23:13:13.263Z,12.70
2019-01-05T23:16:00.513Z,13.60
2019-01-05T23:18:38.360Z,13.50
2019-01-05T23:21:10.864Z,13.27
2019-01-05T23:23:59.051Z,15.77
2019-01-05T23:26:31.375Z,13.10
2019-01-05T23:29:14.684Z,14.07
2019-01-05T23:31:46.362Z,11.97
2019-01-05T23:34:18.728Z,13.07
2019-01-05T23:37:05.759Z,12.67
2019-01-05T23:39:53.816Z,13.57
2019-01-05T23:42:37.990Z,16.03
2019-01-05T23:45:24.815Z,12.50
2019-01-05T23:48:02.547Z,15.37
2019-01-05T23:50:37.902Z,12.43
2019-01-05T23:53:15.696Z,14.63
2019-01-05T23:56:02.713Z,15.03
2019-01-05T23:58:43.531Z,14.70
